Time;durP1;ratioP1;P1;durP2;ratioP2;P2;SDS_P1;SDS_P2;PMS_P1;PMS_P2;Temp;Humidity;BMP_temperature;BMP_pressure;BME280_temperature;BME280_humidity;BME280_pressure;Samples;Min_cycle;Max_cycle;Signal;HPM_P1;HPM_P2
2022/12/13 00:00:36;;;;;;;9.97;7.93;;;;;;;1.08;100.00;101250.91;2095134;28;20214;-65
2022/12/13 00:01:37;;;;;;;11.17;8.00;;;;;;;0.93;100.00;101223.63;2094818;28;20585;-65
2022/12/13 00:02:37;;;;;;;11.23;8.40;;;;;;;1.11;100.00;101258.41;2095760;28;20253;-65
2022/12/13 00:03:38;;;;;;;10.00;8.07;;;;;;;1.11;100.00;101249.41;2095689;28;20214;-66
2022/12/13 00:04:38;;;;;;;10.57;8.17;;;;;;;1.10;100.00;101256.81;2095509;28;20188;-65
2022/12/13 00:05:43;;;;;;;12.43;8.37;;;;;;;1.13;100.00;101252.59;2094446;28;20183;-65
2022/12/13 00:06:44;;;;;;;10.35;8.13;;;;;;;1.15;100.00;101250.28;2094238;28;20620;-65
2022/12/13 00:07:45;;;;;;;11.25;8.48;;;;;;;1.15;100.00;101262.00;2094367;28;20207;-65
2022/12/13 00:08:45;;;;;;;11.07;8.50;;;;;;;0.56;100.00;101159.56;2095929;28;20194;-65
2022/12/13 00:09:46;;;;;;;11.30;8.80;;;;;;;1.15;100.00;101263.94;2093523;28;20311;-65
2022/12/13 00:10:47;;;;;;;11.63;8.80;;;;;;;1.15;100.00;101259.28;2095897;28;20184;-65
2022/12/13 00:11:48;;;;;;;11.67;8.40;;;;;;;1.15;100.00;101270.19;2095033;28;20202;-65
2022/12/13 00:12:49;;;;;;;10.80;8.27;;;;;;;1.19;100.00;101273.78;2095433;28;20341;-65
2022/12/13 00:13:49;;;;;;;10.83;8.40;;;;;;;1.16;100.00;101273.72;2094790;28;20233;-65
2022/12/13 00:14:50;;;;;;;10.47;8.40;;;;;;;1.17;100.00;101283.47;2094750;28;20262;-65
2022/12/13 00:16:02;;;;;;;11.10;8.67;;;;;;;1.14;100.00;101268.59;2095153;28;20206;-65
2022/12/13 00:17:03;;;;;;;10.38;8.00;;;;;;;1.13;100.00;101277.16;2095703;28;20182;-65
2022/12/13 00:18:03;;;;;;;11.57;8.33;;;;;;;1.10;100.00;101275.13;2095265;28;20201;-65
2022/12/13 00:19:04;;;;;;;10.93;7.77;;;;;;;1.13;100.00;101282.63;2093708;28;20276;-65
2022/12/13 00:20:04;;;;;;;10.50;8.57;;;;;;;0.64;100.00;101208.50;2094090;28;20657;-65
2022/12/13 00:21:07;;;;;;;11.27;8.43;;;;;;;1.07;100.00;101284.81;2094638;28;20191;-65
2022/12/13 00:22:08;;;;;;;10.63;8.50;;;;;;;1.05;100.00;101283.59;2093025;28;20615;-66
2022/12/13 00:23:08;;;;;;;11.20;8.80;;;;;;;1.05;100.00;101287.13;2094999;28;20180;-66
2022/12/13 00:24:09;;;;;;;12.37;8.83;;;;;;;0.05;100.00;101131.41;2095370;28;20180;-65
2022/12/13 00:25:09;;;;;;;10.43;8.43;;;;;;;1.05;100.00;101289.84;2095839;28;20623;-65
2022/12/13 00:26:13;;;;;;;11.80;8.70;;;;;;;0.92;100.00;101293.78;2095291;28;20682;-65
2022/12/13 00:27:13;;;;;;;12.05;9.27;;;;;;;0.83;100.00;101286.94;2095350;28;20196;-65
2022/12/13 00:28:14;;;;;;;10.97;8.60;;;;;;;0.93;100.00;101294.59;2095034;28;20270;-65
2022/12/13 00:29:14;;;;;;;11.82;8.82;;;;;;;0.88;100.00;101295.63;2095069;28;20589;-65
2022/12/13 00:30:15;;;;;;;11.63;9.10;;;;;;;0.91;100.00;101296.84;2095362;28;20194;-65
2022/12/13 00:31:17;;;;;;;11.27;9.23;;;;;;;0.95;100.00;101303.22;2095192;28;20238;-65
2022/12/13 00:32:17;;;;;;;11.32;8.60;;;;;;;0.75;100.00;101266.84;2094427;28;20637;-65
2022/12/13 00:33:18;;;;;;;12.87;9.13;;;;;;;0.98;100.00;101311.47;2095649;28;20607;-65
2022/12/13 00:34:20;;;;;;;11.23;8.73;;;;;;;0.43;100.00;101218.06;2096268;28;20192;-65
2022/12/13 00:35:20;;;;;;;11.55;8.68;;;;;;;0.99;100.00;101306.81;2094269;28;20195;-65
2022/12/13 00:36:20;;;;;;;11.07;8.73;;;;;;;1.00;100.00;101309.22;2094239;28;20282;-65
2022/12/13 00:37:21;;;;;;;11.13;8.80;;;;;;;0.95;100.00;101309.47;2094493;28;20283;-65
2022/12/13 00:38:22;;;;;;;13.20;9.30;;;;;;;0.92;100.00;101301.97;2095413;28;20202;-65
2022/12/13 00:39:23;;;;;;;11.57;9.00;;;;;;;0.92;100.00;101303.91;2094570;28;20286;-65
2022/12/13 00:40:23;;;;;;;10.50;8.37;;;;;;;0.88;100.00;101297.59;2094852;28;20210;-66
2022/12/13 00:41:24;;;;;;;11.90;8.37;;;;;;;0.81;100.00;101303.63;2094614;28;20270;-65
2022/12/13 00:42:25;;;;;;;12.67;8.50;;;;;;;0.75;100.00;101301.50;2095467;28;20232;-65
2022/12/13 00:43:25;;;;;;;13.07;9.20;;;;;;;0.71;100.00;101316.97;2094096;28;20187;-65
2022/12/13 00:44:26;;;;;;;10.13;7.83;;;;;;;0.62;100.00;101314.44;2094322;28;20220;-65
2022/12/13 00:45:27;;;;;;;10.73;8.60;;;;;;;0.59;100.00;101312.41;2095465;28;20204;-65
2022/12/13 00:46:28;;;;;;;11.82;8.52;;;;;;;0.40;100.00;101289.66;2093128;28;20241;-65
2022/12/13 00:47:29;;;;;;;10.93;8.82;;;;;;;0.48;100.00;101314.03;2094144;28;20245;-65
2022/12/13 00:48:29;;;;;;;10.90;8.50;;;;;;;0.45;100.00;101306.56;2095036;28;20187;-65
2022/12/13 00:49:30;;;;;;;13.00;8.50;;;;;;;0.44;100.00;101312.34;2094084;28;21119;-65
2022/12/13 00:50:30;;;;;;;11.30;8.40;;;;;;;0.44;100.00;101310.44;2095000;28;20554;-65
2022/12/13 00:51:33;;;;;;;11.20;8.60;;;;;;;0.30;100.00;101306.50;2094774;28;20179;-65
2022/12/13 00:52:34;;;;;;;11.38;8.82;;;;;;;-0.40;100.00;101192.78;2095839;28;20200;-65
2022/12/13 00:53:35;;;;;;;12.60;8.93;;;;;;;0.22;100.00;101300.06;2095412;28;20370;-65
2022/12/13 00:54:35;;;;;;;12.32;9.23;;;;;;;0.26;100.00;101309.13;2094056;28;20655;-65
2022/12/13 00:55:39;;;;;;;12.90;9.20;;;;;;;0.19;100.00;101311.66;2094684;28;20191;-65
2022/12/13 00:56:40;;;;;;;10.98;8.98;;;;;;;-0.26;100.00;101231.31;2094307;28;20192;-65
2022/12/13 00:57:40;;;;;;;11.50;9.17;;;;;;;0.33;100.00;101317.53;2093961;28;20261;-65
2022/12/13 00:58:41;;;;;;;11.67;9.47;;;;;;;-0.32;100.00;101219.06;2094211;28;20562;-65
2022/12/13 00:59:41;;;;;;;13.80;10.00;;;;;;;0.28;100.00;101317.78;2094967;28;20187;-65
2022/12/13 01:00:42;;;;;;;13.23;10.10;;;;;;;0.35;100.00;101320.69;2094285;28;20207;-65
2022/12/13 01:01:43;;;;;;;12.50;9.60;;;;;;;0.31;100.00;101303.44;2094091;28;20732;-65
2022/12/13 01:02:43;;;;;;;12.93;9.47;;;;;;;0.37;100.00;101315.69;2095455;28;20179;-65
2022/12/13 01:03:44;;;;;;;13.67;9.90;;;;;;;0.32;100.00;101317.88;2094949;28;20218;-65
2022/12/13 01:04:45;;;;;;;13.87;9.93;;;;;;;0.36;100.00;101318.78;2093548;28;20246;-66
2022/12/13 01:05:46;;;;;;;14.10;9.90;;;;;;;0.38;100.00;101321.94;2094969;28;20424;-65
2022/12/13 01:06:50;;;;;;;12.30;9.35;;;;;;;0.38;100.00;101319.22;2094974;28;20574;-65
2022/12/13 01:07:50;;;;;;;14.48;10.25;;;;;;;0.38;100.00;101321.94;2094883;28;20205;-65
2022/12/13 01:08:51;;;;;;;13.43;9.83;;;;;;;0.38;100.00;101324.66;2095445;28;20839;-65
2022/12/13 01:09:51;;;;;;;13.63;9.70;;;;;;;0.30;100.00;101322.84;2095120;28;20260;-65
2022/12/13 01:10:52;;;;;;;16.03;10.70;;;;;;;0.31;100.00;101338.88;2095691;28;20235;-65
2022/12/13 01:12:00;;;;;;;12.93;9.57;;;;;;;0.34;100.00;101329.22;2094943;28;20219;-65
2022/12/13 01:13:00;;;;;;;13.43;9.98;;;;;;;0.41;100.00;101323.97;2093920;28;20199;-66
2022/12/13 01:14:00;;;;;;;14.23;10.17;;;;;;;-0.16;100.00;101245.25;2093903;28;20224;-66
2022/12/13 01:15:01;;;;;;;13.80;10.10;;;;;;;0.48;100.00;101324.16;2094193;28;20207;-66
2022/12/13 01:16:04;;;;;;;12.73;10.00;;;;;;;0.49;100.00;101328.47;2094134;28;20664;-66
2022/12/13 01:17:06;;;;;;;13.75;10.10;;;;;;;0.51;100.00;101328.91;2094021;28;20217;-65
2022/12/13 01:18:07;;;;;;;15.40;9.90;;;;;;;0.55;100.00;101336.06;2095956;28;20200;-65
2022/12/13 01:19:07;;;;;;;14.18;10.30;;;;;;;0.55;100.00;101332.53;2096586;28;20253;-66
2022/12/13 01:20:09;;;;;;;13.17;10.00;;;;;;;0.57;100.00;101322.09;2095548;28;20194;-65
2022/12/13 01:21:14;;;;;;;12.82;10.10;;;;;;;0.52;100.00;101325.84;2097290;28;20223;-65
2022/12/13 01:22:15;;;;;;;13.95;10.27;;;;;;;0.55;100.00;101333.34;2095059;28;21111;-65
2022/12/13 01:23:15;;;;;;;13.30;10.13;;;;;;;0.51;100.00;101324.25;2095558;28;20226;-65
2022/12/13 01:24:19;;;;;;;12.07;9.10;;;;;;;-0.47;100.00;101187.94;2096644;28;20204;-65
2022/12/13 01:25:19;;;;;;;12.63;9.57;;;;;;;0.51;100.00;101337.88;2096132;28;20184;-65
2022/12/13 01:26:20;;;;;;;13.53;10.07;;;;;;;0.53;100.00;101340.28;2095922;28;20196;-65
2022/12/13 01:27:21;;;;;;;13.47;10.20;;;;;;;0.54;100.00;101334.47;2096877;28;20179;-65
2022/12/13 01:28:23;;;;;;;12.70;9.50;;;;;;;-0.79;100.00;101130.97;2096945;28;20560;-65
2022/12/13 01:29:25;;;;;;;14.63;10.70;;;;;;;0.05;100.00;101275.81;2095586;28;20261;-65
2022/12/13 01:30:25;;;;;;;12.50;9.55;;;;;;;0.42;100.00;101328.28;2092227;28;20196;-65
2022/12/13 01:31:26;;;;;;;13.60;9.90;;;;;;;0.48;100.00;101337.78;2096877;28;20191;-66
2022/12/13 01:32:26;;;;;;;13.77;10.27;;;;;;;0.51;100.00;101348.00;2096271;28;20294;-65
2022/12/13 01:33:28;;;;;;;13.90;9.90;;;;;;;0.50;100.00;101344.50;2095180;28;20314;-66
2022/12/13 01:34:28;;;;;;;13.57;9.75;;;;;;;0.00;100.00;101267.13;2096752;28;20496;-66
2022/12/13 01:35:28;;;;;;;12.87;9.87;;;;;;;0.40;100.00;101347.72;2096336;28;20188;-65
2022/12/13 01:36:29;;;;;;;11.83;9.37;;;;;;;0.35;100.00;101331.59;2095170;28;20214;-65
2022/12/13 01:37:29;;;;;;;12.27;9.30;;;;;;;0.39;100.00;101342.59;2095628;28;20183;-65
2022/12/13 01:38:30;;;;;;;13.87;9.37;;;;;;;0.37;100.00;101350.34;2096024;28;20696;-65
2022/12/13 01:39:31;;;;;;;12.95;9.55;;;;;;;0.37;100.00;101333.97;2091884;28;20206;-65
2022/12/13 01:40:31;;;;;;;12.13;9.20;;;;;;;0.34;100.00;101348.28;2095154;28;20208;-65
2022/12/13 01:41:32;;;;;;;12.53;9.63;;;;;;;0.28;100.00;101360.59;2095511;28;20196;-65
2022/12/13 01:42:32;;;;;;;13.63;10.03;;;;;;;0.36;100.00;101352.25;2096110;28;20179;-65
2022/12/13 01:43:36;;;;;;;12.33;9.50;;;;;;;0.38;100.00;101354.66;2096755;28;20187;-65
2022/12/13 01:44:54;;;;;;;14.05;10.13;;;;;;;0.36;100.00;101355.00;2097312;28;20187;-66
2022/12/13 01:45:55;;;;;;;14.88;10.25;;;;;;;0.31;100.00;101355.22;2095860;28;20205;-66
2022/12/13 01:46:55;;;;;;;13.00;9.30;;;;;;;0.26;100.00;101366.38;2097226;28;20223;-66
2022/12/13 01:48:03;;;;;;;13.23;10.17;;;;;;;0.23;100.00;101339.03;2096102;28;20195;-65
2022/12/13 01:49:14;;;;;;;15.07;9.90;;;;;;;0.23;100.00;101364.38;2095840;28;20210;-65
2022/12/13 01:50:27;;;;;;;15.32;9.90;;;;;;;-1.09;100.00;101177.84;2095959;28;20201;-65
2022/12/13 01:51:47;;;;;;;15.10;10.18;;;;;;;0.23;100.00;101355.38;2096461;28;20614;-65
2022/12/13 01:52:49;;;;;;;14.35;10.27;;;;;;;0.31;100.00;101359.91;2094862;28;20179;-65
2022/12/13 01:53:50;;;;;;;14.65;10.15;;;;;;;0.28;100.00;101355.94;2097231;28;20183;-65
2022/12/13 01:54:57;;;;;;;13.88;10.48;;;;;;;0.28;100.00;101357.88;2096085;28;20612;-65
2022/12/13 01:56:05;;;;;;;13.63;10.55;;;;;;;0.27;100.00;101357.06;2095570;28;20195;-65
2022/12/13 01:57:09;;;;;;;13.75;9.88;;;;;;;0.27;100.00;101351.59;2095784;28;20195;-65
2022/12/13 01:58:11;;;;;;;12.60;9.75;;;;;;;0.28;100.00;101350.50;2095272;28;20199;-66
2022/12/13 01:59:14;;;;;;;14.00;10.45;;;;;;;0.07;100.00;101311.69;2095471;28;20203;-66
2022/12/13 02:00:15;;;;;;;13.25;9.57;;;;;;;0.29;100.00;101349.34;2096204;28;20637;-66
2022/12/13 02:01:17;;;;;;;13.32;10.10;;;;;;;0.21;100.00;101342.09;2096808;28;20202;-65
2022/12/13 02:02:18;;;;;;;14.23;10.00;;;;;;;0.25;100.00;101356.63;2094979;28;20313;-65
2022/12/13 02:03:20;;;;;;;13.80;10.57;;;;;;;0.22;100.00;101337.44;2094633;28;20198;-65
2022/12/13 02:04:30;;;;;;;14.30;10.73;;;;;;;0.30;100.00;101350.94;2096255;28;20240;-65
2022/12/13 02:05:38;;;;;;;14.02;10.20;;;;;;;0.27;100.00;101351.59;2096180;28;20622;-65
2022/12/13 02:06:44;;;;;;;13.45;9.98;;;;;;;-1.54;100.00;101068.44;2095963;28;20180;-65
2022/12/13 02:07:46;;;;;;;14.00;10.25;;;;;;;0.08;100.00;101326.13;2095375;28;20191;-65
2022/12/13 02:08:46;;;;;;;14.40;10.85;;;;;;;0.21;100.00;101360.38;2097436;28;20187;-66
2022/12/13 02:09:49;;;;;;;14.23;11.17;;;;;;;-0.45;100.00;101253.72;2092581;28;20200;-66
2022/12/13 02:10:49;;;;;;;15.38;10.98;;;;;;;0.10;100.00;101340.19;2095724;28;20201;-66
2022/12/13 02:11:50;;;;;;;14.47;11.20;;;;;;;0.17;100.00;101345.88;2095013;28;20198;-65
2022/12/13 02:12:51;;;;;;;13.85;10.48;;;;;;;0.13;100.00;101348.47;2095997;28;20195;-65
2022/12/13 02:13:51;;;;;;;15.30;11.07;;;;;;;0.06;100.00;101350.97;2096108;28;20825;-65
2022/12/13 02:14:52;;;;;;;13.63;10.43;;;;;;;0.04;100.00;101350.53;2095242;28;20808;-65
2022/12/13 02:16:11;;;;;;;14.73;11.50;;;;;;;-0.11;100.00;101321.28;2095409;28;20262;-66
2022/12/13 02:17:51;;;;;;;13.75;10.55;;;;;;;0.09;100.00;101352.22;2095489;28;20197;-66
2022/12/13 02:19:17;;;;;;;13.75;10.65;;;;;;;0.04;100.00;101341.56;2092959;28;20283;-66
2022/12/13 02:20:40;;;;;;;14.77;10.88;;;;;;;0.06;100.00;101350.97;2095084;28;20377;-66
2022/12/13 02:21:43;;;;;;;15.23;11.07;;;;;;;0.04;100.00;101352.47;2094837;28;20255;-66
2022/12/13 02:23:11;;;;;;;13.85;10.70;;;;;;;0.00;100.00;101355.09;2096616;28;20656;-66
2022/12/13 02:24:27;;;;;;;16.30;10.45;;;;;;;-0.17;100.00;101329.25;2095407;28;20365;-66
2022/12/13 02:25:33;;;;;;;15.93;10.65;;;;;;;-0.06;100.00;101353.75;2097172;28;20223;-66
2022/12/13 02:26:42;;;;;;;14.50;10.32;;;;;;;-0.09;100.00;101348.97;2095531;28;20215;-66
2022/12/13 02:28:01;;;;;;;13.77;10.40;;;;;;;-0.07;100.00;101348.63;2096333;28;20203;-66
2022/12/13 02:29:25;;;;;;;15.00;10.82;;;;;;;-0.06;100.00;101351.03;2095877;28;20749;-66
2022/12/13 02:30:29;;;;;;;14.45;11.07;;;;;;;-0.02;100.00;101348.41;2093558;28;20187;-66
2022/12/13 02:31:41;;;;;;;14.50;11.02;;;;;;;0.01;100.00;101348.50;2095772;28;20191;-66
2022/12/13 02:33:08;;;;;;;14.88;10.95;;;;;;;-0.03;100.00;101350.34;2096190;28;20264;-66
2022/12/13 02:34:20;;;;;;;14.00;10.65;;;;;;;0.00;100.00;101341.47;2092303;28;20204;-66
2022/12/13 02:35:50;;;;;;;13.90;10.98;;;;;;;-0.22;100.00;101314.72;2092905;28;20675;-66
2022/12/13 02:37:10;;;;;;;14.55;10.73;;;;;;;0.05;100.00;101335.78;2090497;28;20207;-66
2022/12/13 02:38:23;;;;;;;14.75;10.90;;;;;;;0.07;100.00;101340.88;2094818;28;20656;-66
2022/12/13 02:39:31;;;;;;;14.30;10.82;;;;;;;0.07;100.00;101352.56;2095279;28;20200;-66
2022/12/13 02:40:36;;;;;;;14.40;10.80;;;;;;;0.07;100.00;101338.16;2095074;28;20207;-66
2022/12/13 02:41:46;;;;;;;13.40;10.80;;;;;;;0.08;100.00;101342.47;2095751;28;20302;-66
2022/12/13 02:42:59;;;;;;;15.43;11.07;;;;;;;0.09;100.00;101339.41;2095422;28;20210;-66
2022/12/13 02:44:13;;;;;;;14.13;10.23;;;;;;;-0.75;100.00;101211.56;2094830;28;20285;-66
2022/12/13 02:45:20;;;;;;;14.52;10.85;;;;;;;-0.11;100.00;101320.47;2095509;28;20202;-65
2022/12/13 02:46:25;;;;;;;13.82;10.55;;;;;;;-0.70;100.00;101251.38;2096385;28;20190;-65
2022/12/13 02:47:29;;;;;;;14.77;11.55;;;;;;;0.05;100.00;101346.69;2095227;28;20257;-66
2022/12/13 02:48:37;;;;;;;15.00;11.48;;;;;;;0.09;100.00;101349.50;2095780;28;20644;-66
2022/12/13 02:49:42;;;;;;;16.20;11.35;;;;;;;0.06;100.00;101352.94;2094703;28;20260;-66
2022/12/13 02:50:44;;;;;;;17.02;11.57;;;;;;;0.02;100.00;101341.13;2095154;28;20207;-66
2022/12/13 02:51:46;;;;;;;15.02;11.32;;;;;;;0.09;100.00;101353.03;2094694;28;20216;-66
2022/12/13 02:52:48;;;;;;;13.68;11.13;;;;;;;0.09;100.00;101346.78;2096107;28;20230;-66
2022/12/13 02:53:49;;;;;;;15.23;11.02;;;;;;;0.13;100.00;101348.47;2095843;28;20187;-66
2022/12/13 02:54:49;;;;;;;16.13;10.90;;;;;;;0.09;100.00;101341.31;2096939;28;20182;-66
2022/12/13 02:55:50;;;;;;;14.87;11.27;;;;;;;0.17;100.00;101357.53;2095365;28;20188;-66
2022/12/13 02:56:54;;;;;;;14.73;10.80;;;;;;;0.21;100.00;101380.25;2095571;28;20195;-66
2022/12/13 02:57:55;;;;;;;13.93;10.45;;;;;;;0.11;100.00;101352.69;2094205;28;20188;-65
2022/12/13 02:58:56;;;;;;;14.50;10.13;;;;;;;0.08;100.00;101370.53;2094656;28;20326;-65
2022/12/13 03:00:02;;;;;;;13.38;9.90;;;;;;;0.02;100.00;101341.91;2095864;28;20249;-65
2022/12/13 03:01:21;;;;;;;13.30;9.93;;;;;;;-0.02;100.00;101343.75;2096353;28;20556;-65
2022/12/13 03:02:45;;;;;;;14.15;10.70;;;;;;;0.01;100.00;101334.88;2095578;28;20191;-65
2022/12/13 03:03:51;;;;;;;17.70;10.85;;;;;;;0.02;100.00;101339.19;2077995;28;20212;-65
2022/12/13 03:06:43;;;;;;;14.35;10.73;;;;;;;-0.06;100.00;101344.75;2096165;28;20191;-66
2022/12/13 03:08:18;;;;;;;15.40;10.18;;;;;;;-0.11;100.00;101339.56;2078010;28;20714;-66
2022/12/13 03:09:32;;;;;;;14.68;10.23;;;;;;;-0.16;100.00;101346.03;2087129;28;20211;-65
2022/12/13 03:10:42;;;;;;;13.88;9.85;;;;;;;-0.15;100.00;101344.91;2092634;28;20277;-65
2022/12/13 03:13:55;;;;;;;14.32;10.05;;;;;;;-0.15;100.00;101344.13;2096103;28;20649;-66
2022/12/13 03:15:24;;;;;;;14.85;10.60;;;;;;;-0.15;100.00;101344.91;2089765;28;20643;-65
2022/12/13 03:16:41;;;;;;;14.57;10.13;;;;;;;-0.36;100.00;101317.00;2094564;28;20695;-66
2022/12/13 03:17:48;;;;;;;13.30;9.55;;;;;;;-0.11;100.00;101342.28;2095150;28;20202;-66
2022/12/13 03:18:52;;;;;;;14.38;10.20;;;;;;;-0.11;100.00;101345.81;2095159;28;20197;-66
2022/12/13 03:19:53;;;;;;;13.82;10.07;;;;;;;-0.05;100.00;101341.69;2094129;28;20487;-66
2022/12/13 03:21:05;;;;;;;15.38;10.20;;;;;;;-0.02;100.00;101341.03;2095706;28;20294;-66
2022/12/13 03:22:06;;;;;;;17.23;10.27;;;;;;;-0.81;100.00;101212.16;2095350;28;20729;-66
2022/12/13 03:23:10;;;;;;;16.20;10.83;;;;;;;-0.02;100.00;101335.56;2095383;28;20639;-65
2022/12/13 03:24:10;;;;;;;12.00;9.60;;;;;;;-0.02;100.00;101334.78;2095450;28;20190;-66
2022/12/13 03:25:11;;;;;;;12.73;9.50;;;;;;;-0.02;100.00;101338.31;2095764;28;20667;-66
2022/12/13 03:26:19;;;;;;;13.33;9.73;;;;;;;-0.03;100.00;101333.19;2095093;28;20579;-66
2022/12/13 03:27:19;;;;;;;14.20;10.52;;;;;;;-0.05;100.00;101340.94;2094575;28;20641;-65
2022/12/13 03:28:20;;;;;;;14.97;10.57;;;;;;;-0.08;100.00;101338.88;2095586;28;20607;-65
2022/12/13 03:29:21;;;;;;;13.70;10.48;;;;;;;-1.14;100.00;101176.13;2095575;28;20189;-65
2022/12/13 03:30:21;;;;;;;12.80;10.30;;;;;;;-0.30;100.00;101326.53;2095765;28;20197;-66
2022/12/13 03:31:22;;;;;;;14.70;10.40;;;;;;;-0.22;100.00;101337.66;2095282;28;20193;-65
2022/12/13 03:32:22;;;;;;;14.40;10.50;;;;;;;-0.14;100.00;101340.25;2094921;28;20229;-65
2022/12/13 03:33:22;;;;;;;13.80;10.40;;;;;;;-0.19;100.00;101335.81;2095738;28;20182;-65
2022/12/13 03:34:23;;;;;;;12.67;10.10;;;;;;;-0.25;100.00;101339.91;2094664;28;20631;-65
2022/12/13 03:35:23;;;;;;;16.63;11.37;;;;;;;-0.27;100.00;101341.41;2094935;28;20674;-65
2022/12/13 03:36:25;;;;;;;14.17;10.43;;;;;;;-0.60;100.00;101303.41;2095084;28;20204;-65
2022/12/13 03:37:25;;;;;;;15.35;10.73;;;;;;;-0.29;100.00;101338.22;2095976;28;20747;-65
2022/12/13 03:38:26;;;;;;;14.93;11.13;;;;;;;-0.28;100.00;101346.06;2094778;28;20575;-65
2022/12/13 03:39:26;;;;;;;15.13;11.50;;;;;;;-0.28;100.00;101343.34;2095473;28;20199;-66
2022/12/13 03:40:29;;;;;;;14.87;11.13;;;;;;;-0.82;100.00;101263.06;2094928;28;20412;-66
2022/12/13 03:41:32;;;;;;;16.02;11.68;;;;;;;-0.28;100.00;101337.09;2095798;28;20247;-66
2022/12/13 03:42:33;;;;;;;14.60;10.98;;;;;;;-1.07;100.00;101223.38;2095876;28;20615;-65
2022/12/13 03:43:33;;;;;;;14.53;10.47;;;;;;;-0.22;100.00;101349.34;2095266;28;20187;-65
2022/12/13 03:44:34;;;;;;;15.17;11.23;;;;;;;-0.21;100.00;101342.75;2095256;28;20187;-65
2022/12/13 03:45:34;;;;;;;14.70;11.10;;;;;;;-0.15;100.00;101349.56;2094769;28;20632;-65
2022/12/13 03:46:35;;;;;;;15.43;11.33;;;;;;;-0.13;100.00;101347.28;2095558;28;20217;-66
2022/12/13 03:47:35;;;;;;;15.03;10.97;;;;;;;-0.15;100.00;101344.13;2094809;28;20201;-65
2022/12/13 03:48:36;;;;;;;15.70;11.67;;;;;;;-0.13;100.00;101337.19;2094581;28;20221;-65
2022/12/13 03:49:36;;;;;;;15.57;10.90;;;;;;;-0.14;100.00;101343.75;2093334;28;20589;-66
2022/12/13 03:50:36;;;;;;;14.63;11.03;;;;;;;-0.32;100.00;101317.13;2095988;28;20656;-65
2022/12/13 03:51:37;;;;;;;15.00;11.13;;;;;;;-0.42;100.00;101320.31;2095368;28;20194;-65
2022/12/13 03:52:37;;;;;;;16.30;11.30;;;;;;;-0.16;100.00;101342.50;2091281;28;20282;-65
2022/12/13 03:53:38;;;;;;;14.57;10.77;;;;;;;-0.12;100.00;101343.41;2095957;28;20190;-65
2022/12/13 03:54:38;;;;;;;14.67;11.10;;;;;;;-0.12;100.00;101338.78;2095385;28;20694;-65
2022/12/13 03:55:39;;;;;;;15.00;11.47;;;;;;;-1.29;100.00;101157.00;2094874;28;20602;-66
2022/12/13 03:56:39;;;;;;;14.37;10.53;;;;;;;-0.15;100.00;101347.63;2094883;28;20292;-65
2022/12/13 03:57:39;;;;;;;13.53;10.63;;;;;;;-0.57;100.00;101279.38;2096118;28;20557;-65
2022/12/13 03:58:43;;;;;;;12.73;10.07;;;;;;;-0.20;100.00;101333.47;2095572;28;20318;-65
2022/12/13 03:59:43;;;;;;;13.82;10.20;;;;;;;-0.02;100.00;101342.94;2095030;28;20191;-66
2022/12/13 04:00:44;;;;;;;13.97;10.40;;;;;;;-0.21;100.00;101315.50;2095038;28;20207;-66
2022/12/13 04:01:44;;;;;;;13.30;10.10;;;;;;;0.04;100.00;101347.81;2091239;28;20789;-65
2022/12/13 04:02:45;;;;;;;14.63;9.80;;;;;;;-0.17;100.00;101310.19;2090945;28;20585;-65
2022/12/13 04:03:46;;;;;;;12.87;10.07;;;;;;;0.12;100.00;101354.28;2096293;28;20182;-66
2022/12/13 04:04:46;;;;;;;15.23;10.85;;;;;;;0.06;100.00;101345.53;2095980;28;20178;-66
2022/12/13 04:05:47;;;;;;;13.10;9.93;;;;;;;0.15;100.00;101356.28;2095695;28;20198;-65
2022/12/13 04:06:48;;;;;;;12.97;9.73;;;;;;;-0.37;100.00;101271.06;2096232;28;20628;-65
2022/12/13 04:07:48;;;;;;;11.90;9.47;;;;;;;-0.07;100.00;101337.72;2094962;28;20321;-65
2022/12/13 04:08:49;;;;;;;14.03;9.93;;;;;;;0.06;100.00;101363.84;2096156;28;20198;-65
2022/12/13 04:09:49;;;;;;;11.67;9.57;;;;;;;0.06;100.00;101358.38;2091372;28;20192;-65
2022/12/13 04:10:50;;;;;;;12.20;9.43;;;;;;;0.06;100.00;101361.09;2094615;28;20188;-65
2022/12/13 04:14:29;;;;;;;13.60;9.55;;;;;;;0.04;100.00;101366.91;2095664;28;20202;-65
2022/12/13 04:15:29;;;;;;;15.20;9.90;;;;;;;0.03;100.00;101359.88;2094665;28;20191;-65
2022/12/13 04:16:29;;;;;;;13.73;9.50;;;;;;;0.03;100.00;101357.13;2095137;28;20689;-65
2022/12/13 04:17:30;;;;;;;13.97;9.93;;;;;;;0.01;100.00;101364.84;2094334;28;20270;-65
2022/12/13 04:18:30;;;;;;;12.47;8.60;;;;;;;-0.46;100.00;101286.75;2096203;28;20183;-66
2022/12/13 04:19:31;;;;;;;13.17;9.90;;;;;;;0.08;100.00;101358.81;2094574;28;20282;-66
2022/12/13 04:20:31;;;;;;;12.93;9.70;;;;;;;-0.78;100.00;101227.00;2095409;28;20265;-65
2022/12/13 04:21:31;;;;;;;13.90;10.20;;;;;;;0.05;100.00;101363.03;2095192;28;20278;-65
2022/12/13 04:22:32;;;;;;;12.30;9.73;;;;;;;0.05;100.00;101370.41;2094172;28;20187;-65
2022/12/13 04:23:32;;;;;;;13.30;9.50;;;;;;;0.04;100.00;101361.44;2095543;28;20556;-65
2022/12/13 04:24:33;;;;;;;12.20;9.60;;;;;;;-0.30;100.00;101307.47;2094993;28;20172;-65
2022/12/13 04:25:33;;;;;;;12.93;9.83;;;;;;;-0.10;100.00;101341.94;2094615;28;20199;-66
2022/12/13 04:26:33;;;;;;;11.67;8.93;;;;;;;0.04;100.00;101364.16;2095976;28;20188;-65
2022/12/13 04:27:36;;;;;;;13.97;9.33;;;;;;;-0.61;100.00;101269.16;2095351;28;20192;-65
2022/12/13 04:28:37;;;;;;;11.98;9.68;;;;;;;0.04;100.00;101364.16;2095127;28;20194;-66
2022/12/13 04:29:37;;;;;;;13.80;9.60;;;;;;;0.05;100.00;101364.94;2094745;28;20677;-65
2022/12/13 04:30:38;;;;;;;13.07;10.10;;;;;;;0.05;100.00;101367.66;2094821;28;20187;-65
2022/12/13 04:31:38;;;;;;;12.30;8.97;;;;;;;0.09;100.00;101363.94;2095032;28;20187;-66
2022/12/13 04:32:39;;;;;;;12.97;9.43;;;;;;;-0.13;100.00;101323.56;2095500;28;20176;-66
2022/12/13 04:33:39;;;;;;;11.83;9.00;;;;;;;0.14;100.00;101366.41;2095256;28;20244;-65
2022/12/13 04:34:40;;;;;;;11.17;9.07;;;;;;;-0.70;100.00;101241.25;2095420;28;20820;-65
2022/12/13 04:35:40;;;;;;;13.07;9.43;;;;;;;0.13;100.00;101372.22;2095754;28;20179;-65
2022/12/13 04:36:40;;;;;;;12.17;9.53;;;;;;;-0.16;100.00;101373.28;2095404;28;20188;-66
2022/12/13 04:37:41;;;;;;;13.67;9.70;;;;;;;0.00;100.00;101376.88;2094225;28;20188;-65
2022/12/13 04:38:41;;;;;;;11.63;9.20;;;;;;;0.04;100.00;101380.53;2094896;28;20223;-66
2022/12/13 04:39:42;;;;;;;12.50;9.67;;;;;;;0.03;100.00;101387.13;2093571;28;20558;-66
2022/12/13 04:40:42;;;;;;;13.47;9.83;;;;;;;0.03;100.00;101387.13;2095619;28;20283;-65
2022/12/13 04:41:42;;;;;;;11.90;9.07;;;;;;;0.06;100.00;101383.69;2095489;28;20186;-65
2022/12/13 04:42:43;;;;;;;12.80;9.63;;;;;;;0.07;100.00;101384.50;2094784;28;20259;-66
2022/12/13 04:43:49;;;;;;;11.83;9.40;;;;;;;-0.16;100.00;101364.31;2095863;28;20207;-65
2022/12/13 04:44:49;;;;;;;11.95;9.45;;;;;;;0.01;100.00;101388.59;2094696;28;20214;-65
2022/12/13 04:45:50;;;;;;;12.77;9.83;;;;;;;0.00;100.00;101387.78;2094502;28;20218;-66
2022/12/13 04:46:50;;;;;;;12.23;9.40;;;;;;;0.03;100.00;101395.28;2093707;28;20198;-65
2022/12/13 04:47:51;;;;;;;12.90;9.63;;;;;;;0.07;100.00;101384.50;2095411;28;20283;-65
2022/12/13 04:48:51;;;;;;;11.30;9.30;;;;;;;0.10;100.00;101386.50;2095258;28;20205;-65
2022/12/13 04:49:52;;;;;;;11.77;8.90;;;;;;;0.08;100.00;101392.31;2095078;28;20179;-66
2022/12/13 04:50:52;;;;;;;12.57;9.10;;;;;;;0.03;100.00;101392.56;2094574;28;20699;-65
2022/12/13 04:51:52;;;;;;;11.87;9.13;;;;;;;-0.19;100.00;101365.78;2095355;28;20195;-66
2022/12/13 04:52:53;;;;;;;11.47;9.03;;;;;;;0.01;100.00;101394.81;2094957;28;20209;-65
2022/12/13 04:53:53;;;;;;;12.20;9.57;;;;;;;-0.13;100.00;101371.81;2095323;28;20245;-65
2022/12/13 04:54:54;;;;;;;13.43;10.10;;;;;;;-0.06;100.00;101383.72;2095587;28;20227;-65
2022/12/13 04:55:54;;;;;;;14.83;10.83;;;;;;;-0.06;100.00;101383.72;2094803;28;20341;-65